Flight Information

DEPARTURE
PORTLAND, OR
Elevation:
30
Runways:
10R/28L - 11000x150 - CONC-G
3/21 - 6000x150 - ASPH-E
10L/28R - 9825x150 - ASPH-E
ATIS:
128.35 503-493-7557
Clearance Delivery:
120.125
Ground:
121.9
Tower:
PORTLAND TOWER
123.775 RWY 03-21, 10R-28L
118.7 RWY 10L-28R
DESTINATION
,
Elevation:
TPA:
1000 (est.)


6728.6 NM65° True-19° Var46° HDG

Flight Plan:
(click to file on line)

1. Type
2. Aircraft Identification
3. Aircraft Type / Special Equipment
4. True Airspeed
kts
5. Departure Airport
(ICAO code)
6. Arriving Airport
(ICAO code)
7. Cruising Altitude
ft
8. Alternate Airport
(ICAO code)
9. Route of Flight
10. Remarks


00:00:00 Departure ATIS: Destination ATIS:

Clearance Limit:
Route:
Altitude: Expect in minutes
Frequency:
Transponder: (7500 Hijack / 7600 Lost Comms / 7700 Emergency)


KPDX 281053Z 00000KT 10SM CLR 12/10 A3031 RMK AO2 SLP262 T01220100
Time: 2020-09-28T10:53:00Z
1601291168
Winds: calm
Visibility: 10.0 sm
Clouds (AGL): CLR
Temperature: 12.2 C
Dew Point: 10.0 C
Pressure: 30.31004 in Hgbr


Notes:

Data extracted from FAA Digital Chart Supplement. Effective: 0901Z Thursday, Sep 10, 2020 to 0901Z Thursday, Nov 5, 2020
Current ATIS data is provided courtisy of PilotEdge.